createdAt,value
2017-09-15T00:00:01.376Z,96.61
2017-09-15T00:00:27.502Z,96.32
2017-09-15T00:00:53.624Z,96.32
2017-09-15T00:01:19.742Z,96.51
2017-09-15T00:01:45.868Z,96.32
2017-09-15T00:02:11.990Z,96.03
2017-09-15T00:02:38.114Z,95.65
2017-09-15T00:03:04.258Z,95.65
2017-09-15T00:03:30.373Z,95.84
2017-09-15T00:03:56.496Z,95.75
2017-09-15T00:04:22.625Z,95.84
2017-09-15T00:04:48.741Z,96.03
2017-09-15T00:05:14.859Z,96.32
2017-09-15T00:05:40.986Z,96.13
2017-09-15T00:06:07.108Z,95.65
2017-09-15T00:06:33.235Z,95.65
2017-09-15T00:06:59.360Z,95.65
2017-09-15T00:07:25.484Z,95.65
2017-09-15T00:07:51.606Z,95.94
2017-09-15T00:08:17.729Z,96.03
2017-09-15T00:08:43.844Z,95.94
2017-09-15T00:09:09.965Z,95.84
2017-09-15T00:09:36.089Z,95.94
2017-09-15T00:10:02.261Z,95.84
2017-09-15T00:10:28.389Z,95.94
2017-09-15T00:10:54.505Z,95.65
2017-09-15T00:11:20.631Z,95.84
2017-09-15T00:11:46.748Z,95.84
2017-09-15T00:12:12.879Z,95.84
2017-09-15T00:12:39.003Z,95.94
2017-09-15T00:13:05.122Z,95.65
2017-09-15T00:13:31.247Z,95.65
2017-09-15T00:13:57.370Z,96.32
2017-09-15T00:14:23.486Z,96.42
2017-09-15T00:14:49.631Z,96.22
2017-09-15T00:15:15.751Z,96.22
2017-09-15T00:15:41.879Z,96.13
2017-09-15T00:16:08.001Z,96.51
2017-09-15T00:16:34.128Z,96.32
2017-09-15T00:17:00.252Z,96.32
2017-09-15T00:17:26.388Z,96.32
2017-09-15T00:17:52.515Z,96.51
2017-09-15T00:18:18.632Z,96.42
2017-09-15T00:18:44.753Z,96.42
2017-09-15T00:19:10.880Z,96.13
2017-09-15T00:19:36.999Z,96.42
2017-09-15T00:20:03.128Z,96.22
2017-09-15T00:20:29.251Z,96.22
2017-09-15T00:20:55.379Z,96.8
2017-09-15T00:21:21.499Z,96.56
2017-09-15T00:21:47.622Z,96.8
2017-09-15T00:22:13.745Z,96.89
2017-09-15T00:22:39.866Z,96.51
2017-09-15T00:23:05.994Z,96.42
2017-09-15T00:23:32.113Z,96.61
2017-09-15T00:23:58.230Z,96.03
2017-09-15T00:24:24.352Z,96.27
2017-09-15T00:24:50.499Z,96.22
2017-09-15T00:25:16.617Z,96.46
2017-09-15T00:25:42.737Z,96.46
2017-09-15T00:26:08.867Z,96.13
2017-09-15T00:26:34.991Z,96.22
2017-09-15T00:27:01.113Z,96.22
2017-09-15T00:27:27.236Z,96.32
2017-09-15T00:27:53.354Z,96.22
2017-09-15T00:28:19.475Z,96.22
2017-09-15T00:28:45.594Z,96.32
2017-09-15T00:29:11.714Z,96.51
2017-09-15T00:29:37.841Z,96.42
2017-09-15T00:30:03.967Z,96.56
2017-09-15T00:30:30.089Z,96.08
2017-09-15T00:30:56.215Z,96.8
2017-09-15T00:31:22.335Z,96.42
2017-09-15T00:31:48.461Z,96.22
2017-09-15T00:32:14.578Z,96.46
2017-09-15T00:32:40.700Z,95.94
2017-09-15T00:33:06.827Z,96.08
2017-09-15T00:33:32.943Z,96.84
2017-09-15T00:33:59.071Z,96.8
2017-09-15T00:34:25.196Z,96.75
2017-09-15T00:34:51.316Z,96.32
2017-09-15T00:35:17.438Z,96.46
2017-09-15T00:35:43.558Z,96.51
2017-09-15T00:36:09.685Z,96.03
2017-09-15T00:36:35.800Z,96.32
2017-09-15T00:37:01.926Z,96.13
2017-09-15T00:37:28.044Z,96.22
2017-09-15T00:37:54.164Z,96.56
2017-09-15T00:38:20.293Z,96.08
2017-09-15T00:38:46.417Z,96.37
2017-09-15T00:39:12.536Z,96.56
2017-09-15T00:39:38.653Z,96.37
2017-09-15T00:40:04.780Z,96.94
2017-09-15T00:40:30.896Z,96.84
2017-09-15T00:40:57.024Z,97.03
2017-09-15T00:41:23.149Z,96.84
2017-09-15T00:41:49.270Z,96.94
2017-09-15T00:42:15.394Z,96.84
2017-09-15T00:42:41.514Z,96.84
2017-09-15T00:43:07.631Z,97.03
2017-09-15T00:43:33.748Z,97.03
2017-09-15T00:43:59.876Z,96.84
2017-09-15T00:44:26.001Z,96.94
2017-09-15T00:44:52.120Z,96.94
2017-09-15T00:45:18.247Z,96.94
2017-09-15T00:45:44.373Z,97.03
2017-09-15T00:46:10.495Z,96.94
2017-09-15T00:46:38.060Z,97.03
2017-09-15T00:47:04.183Z,96.84
2017-09-15T00:47:30.303Z,96.84
2017-09-15T00:47:56.428Z,96.84
2017-09-15T00:48:22.551Z,96.94
2017-09-15T00:48:48.675Z,96.84
2017-09-15T00:49:14.803Z,97.13
2017-09-15T00:49:40.914Z,96.94
2017-09-15T00:50:07.035Z,96.84
2017-09-15T00:50:33.163Z,97.03
2017-09-15T00:50:59.292Z,96.84
2017-09-15T00:51:25.411Z,97.03
2017-09-15T00:51:51.537Z,97.13
2017-09-15T00:52:17.652Z,97.32
2017-09-15T00:52:43.773Z,97.32
2017-09-15T00:53:09.902Z,96.84
2017-09-15T00:53:36.025Z,97.23
2017-09-15T00:54:02.143Z,96.84
2017-09-15T00:54:28.271Z,97.23
2017-09-15T00:54:54.388Z,96.94
2017-09-15T00:55:20.507Z,97.8
2017-09-15T00:55:46.636Z,97.13
2017-09-15T00:56:12.761Z,97.03
2017-09-15T00:56:38.878Z,97.42
2017-09-15T00:57:04.999Z,97.71
2017-09-15T00:57:31.126Z,97.13
2017-09-15T00:57:57.243Z,96.84
2017-09-15T00:58:23.371Z,96.66
2017-09-15T00:58:49.488Z,96.46
2017-09-15T00:59:15.616Z,96.37
2017-09-15T00:59:41.739Z,96.75
2017-09-15T01:00:07.856Z,96.84
2017-09-15T01:00:33.984Z,96.75
2017-09-15T01:01:00.104Z,96.56
2017-09-15T01:01:26.227Z,96.56
2017-09-15T01:01:52.349Z,96.84
2017-09-15T01:02:18.467Z,96.75
2017-09-15T01:02:44.593Z,96.84
2017-09-15T01:03:10.719Z,96.46
2017-09-15T01:03:36.833Z,96.66
2017-09-15T01:04:02.955Z,96.84
2017-09-15T01:04:29.082Z,96.84
2017-09-15T01:04:55.210Z,96.75
2017-09-15T01:05:21.331Z,96.56
2017-09-15T01:05:47.458Z,96.75
2017-09-15T01:06:13.586Z,96.66
2017-09-15T01:06:39.699Z,96.66
2017-09-15T01:07:05.827Z,96.84
2017-09-15T01:07:31.948Z,96.84
2017-09-15T01:07:58.070Z,96.94
2017-09-15T01:08:24.189Z,96.84
2017-09-15T01:08:50.308Z,96.84
2017-09-15T01:09:16.428Z,96.84
2017-09-15T01:09:42.552Z,96.46
2017-09-15T01:10:08.668Z,96.94
2017-09-15T01:10:34.786Z,96.75
2017-09-15T01:11:00.913Z,97.61
2017-09-15T01:11:27.031Z,97.52
2017-09-15T01:11:53.163Z,97.61
2017-09-15T01:12:19.284Z,97.52
2017-09-15T01:12:45.415Z,97.23
2017-09-15T01:13:11.523Z,97.71
2017-09-15T01:13:37.648Z,97.61
2017-09-15T01:14:03.774Z,97.23
2017-09-15T01:14:29.901Z,97.23
2017-09-15T01:14:56.037Z,97.23
2017-09-15T01:15:22.158Z,97.52
2017-09-15T01:15:48.278Z,97.42
2017-09-15T01:16:14.398Z,97.52
2017-09-15T01:16:40.539Z,97.71
2017-09-15T01:17:06.664Z,97.23
2017-09-15T01:17:32.812Z,97.42
2017-09-15T01:17:58.931Z,97.32
2017-09-15T01:18:25.056Z,97.52
2017-09-15T01:18:51.178Z,97.71
2017-09-15T01:19:17.303Z,97.32
2017-09-15T01:19:43.426Z,97.71
2017-09-15T01:20:09.544Z,97.71
2017-09-15T01:20:35.670Z,97.61
2017-09-15T01:21:01.789Z,97.8
2017-09-15T01:21:27.909Z,97.61
2017-09-15T01:21:54.025Z,97.52
2017-09-15T01:22:20.143Z,97.52
2017-09-15T01:22:46.273Z,97.42
2017-09-15T01:23:12.397Z,97.32
2017-09-15T01:23:38.522Z,97.52
2017-09-15T01:24:04.645Z,96.75
2017-09-15T01:24:30.763Z,96.94
2017-09-15T01:24:56.880Z,96.94
2017-09-15T01:25:23.007Z,97.61
2017-09-15T01:25:49.129Z,97.61
2017-09-15T01:26:15.249Z,97.52
2017-09-15T01:26:41.376Z,97.42
2017-09-15T01:27:07.496Z,97.61
2017-09-15T01:27:33.622Z,97.71
2017-09-15T01:27:59.738Z,97.42
2017-09-15T01:28:25.860Z,97.52
2017-09-15T01:28:51.990Z,97.23
2017-09-15T01:29:18.104Z,97.32
2017-09-15T01:29:44.230Z,97.42
2017-09-15T01:30:10.350Z,97.03
2017-09-15T01:30:36.476Z,97.03
2017-09-15T01:31:02.596Z,97.52
2017-09-15T01:31:28.723Z,97.61
2017-09-15T01:31:54.848Z,97.32
2017-09-15T01:32:20.966Z,97.61
2017-09-15T01:32:47.094Z,97.42
2017-09-15T01:33:13.212Z,97.32
2017-09-15T01:33:39.333Z,97.61
2017-09-15T01:34:05.460Z,97.32
2017-09-15T01:34:31.577Z,97.61
2017-09-15T01:34:57.706Z,97.42
2017-09-15T01:35:23.824Z,97.61
2017-09-15T01:35:49.951Z,97.8
2017-09-15T01:36:16.073Z,97.42
2017-09-15T01:36:42.199Z,97.71
2017-09-15T01:37:08.324Z,97.42
2017-09-15T01:37:34.442Z,97.89
2017-09-15T01:38:00.568Z,97.61
2017-09-15T01:38:26.690Z,97.8
2017-09-15T01:38:52.805Z,97.61
2017-09-15T01:39:18.930Z,97.42
2017-09-15T01:39:45.051Z,97.71
2017-09-15T01:40:11.171Z,97.52
2017-09-15T01:40:37.298Z,97.42
2017-09-15T01:41:03.409Z,97.52
2017-09-15T01:41:29.531Z,96.75
2017-09-15T01:41:55.657Z,96.94
2017-09-15T01:42:21.780Z,96.94
2017-09-15T01:42:47.905Z,97.03
2017-09-15T01:43:14.032Z,96.84
2017-09-15T01:43:40.155Z,96.94
2017-09-15T01:44:06.275Z,96.94
2017-09-15T01:44:32.394Z,96.75
2017-09-15T01:44:58.517Z,96.66
2017-09-15T01:45:24.636Z,96.56
2017-09-15T01:45:50.759Z,96.66
2017-09-15T01:46:16.891Z,96.56
2017-09-15T01:46:43.009Z,97.03
2017-09-15T01:47:09.125Z,96.37
2017-09-15T01:47:35.250Z,96.75
2017-09-15T01:48:01.374Z,96.56
2017-09-15T01:48:27.496Z,96.37
2017-09-15T01:48:53.623Z,96.75
2017-09-15T01:49:19.741Z,96.94
2017-09-15T01:49:45.868Z,97.23
2017-09-15T01:50:11.985Z,97.8
2017-09-15T01:50:38.112Z,97.8
2017-09-15T01:51:04.235Z,97.42
2017-09-15T01:51:30.351Z,97.32
2017-09-15T01:51:56.478Z,97.52
2017-09-15T01:52:22.595Z,97.42
2017-09-15T01:52:48.715Z,97.23
2017-09-15T01:53:14.843Z,97.61
2017-09-15T01:53:40.960Z,97.52
2017-09-15T01:54:07.086Z,97.23
2017-09-15T01:54:33.211Z,97.71
2017-09-15T01:54:59.330Z,97.42
2017-09-15T01:55:25.454Z,97.52
2017-09-15T01:55:51.573Z,97.52
2017-09-15T01:56:17.699Z,97.71
2017-09-15T01:56:43.816Z,97.71
2017-09-15T01:57:09.938Z,97.61
2017-09-15T01:57:36.061Z,97.42
2017-09-15T01:58:02.187Z,97.52
2017-09-15T01:58:28.308Z,97.52
2017-09-15T01:58:54.428Z,97.42
2017-09-15T01:59:20.554Z,97.52
2017-09-15T01:59:46.671Z,97.52
2017-09-15T02:00:12.798Z,97.71
2017-09-15T02:00:38.922Z,97.61
2017-09-15T02:01:05.037Z,97.71
2017-09-15T02:01:31.176Z,97.71
2017-09-15T02:01:57.301Z,97.71
2017-09-15T02:02:23.423Z,97.71
2017-09-15T02:02:49.546Z,97.71
2017-09-15T02:03:15.672Z,97.61
2017-09-15T02:03:41.790Z,97.61
2017-09-15T02:04:07.913Z,97.52
2017-09-15T02:04:34.034Z,97.42
2017-09-15T02:05:00.153Z,97.71
2017-09-15T02:05:26.283Z,97.42
2017-09-15T02:05:52.395Z,97.42
2017-09-15T02:06:18.523Z,97.42
2017-09-15T02:06:44.646Z,97.42
2017-09-15T02:07:10.757Z,97.32
2017-09-15T02:07:36.886Z,97.8
2017-09-15T02:08:03.001Z,96.94
2017-09-15T02:08:29.133Z,97.03
2017-09-15T02:08:55.260Z,96.84
2017-09-15T02:09:21.382Z,96.84
2017-09-15T02:09:47.502Z,96.84
2017-09-15T02:10:13.630Z,97.23
2017-09-15T02:10:39.745Z,96.75
2017-09-15T02:11:05.866Z,96.94
2017-09-15T02:11:31.989Z,97.61
2017-09-15T02:11:58.116Z,97.42
2017-09-15T02:12:24.231Z,97.42
2017-09-15T02:12:50.352Z,97.71
2017-09-15T02:13:16.479Z,96.94
2017-09-15T02:13:42.599Z,96.94
2017-09-15T02:14:08.726Z,97.23
2017-09-15T02:14:34.849Z,97.23
2017-09-15T02:15:00.967Z,96.84
2017-09-15T02:15:27.088Z,96.84
2017-09-15T02:15:53.211Z,97.71
2017-09-15T02:16:19.334Z,96.66
2017-09-15T02:16:45.461Z,97.32
2017-09-15T02:17:11.579Z,97.61
2017-09-15T02:17:37.707Z,97.89
2017-09-15T02:18:03.831Z,97.32
2017-09-15T02:18:29.952Z,97.52
2017-09-15T02:18:56.079Z,97.42
2017-09-15T02:19:22.198Z,97.32
2017-09-15T02:19:48.316Z,97.8
2017-09-15T02:20:14.443Z,97.52
2017-09-15T02:20:40.559Z,97.42
2017-09-15T02:21:06.687Z,97.52
2017-09-15T02:21:32.809Z,97.32
2017-09-15T02:21:58.930Z,97.42
2017-09-15T02:22:25.054Z,97.71
2017-09-15T02:22:51.175Z,97.89
2017-09-15T02:23:17.298Z,98.08
2017-09-15T02:23:43.422Z,97.99
2017-09-15T02:24:09.540Z,97.8
2017-09-15T02:24:35.658Z,97.99
2017-09-15T02:25:01.780Z,97.71
2017-09-15T02:25:27.907Z,98.18
2017-09-15T02:25:54.024Z,98.18
2017-09-15T02:26:20.146Z,97.89
2017-09-15T02:26:46.270Z,98.28
2017-09-15T02:27:12.387Z,97.89
2017-09-15T02:27:38.514Z,98.18
2017-09-15T02:28:04.639Z,98.18
2017-09-15T02:28:30.758Z,97.89
2017-09-15T02:28:56.895Z,97.99
2017-09-15T02:29:23.016Z,98.18
2017-09-15T02:29:49.154Z,98.18
2017-09-15T02:30:15.277Z,98.18
2017-09-15T02:30:41.398Z,98.18
2017-09-15T02:31:07.530Z,97.89
2017-09-15T02:31:33.645Z,97.99
2017-09-15T02:31:59.762Z,98.18
2017-09-15T02:32:25.905Z,98.28
2017-09-15T02:32:52.022Z,98.32
2017-09-15T02:33:18.152Z,98.23
2017-09-15T02:33:44.277Z,98.37
2017-09-15T02:34:10.403Z,98.42
2017-09-15T02:34:36.520Z,99.08
2017-09-15T02:35:02.646Z,98.32
2017-09-15T02:35:28.771Z,98.42
2017-09-15T02:35:54.891Z,98.18
2017-09-15T02:36:21.016Z,98.32
2017-09-15T02:36:47.135Z,97.99
2017-09-15T02:37:13.259Z,98.03
2017-09-15T02:37:39.377Z,99.23
2017-09-15T02:38:05.504Z,98.8
2017-09-15T02:38:31.621Z,99.14
2017-09-15T02:38:57.745Z,98.28
2017-09-15T02:39:23.867Z,98.18
2017-09-15T02:39:49.987Z,97.8
2017-09-15T02:40:16.118Z,98.08
2017-09-15T02:40:42.232Z,98.18
2017-09-15T02:41:08.358Z,98.18
2017-09-15T02:41:34.484Z,97.99
2017-09-15T02:42:00.600Z,97.89
2017-09-15T02:42:26.726Z,97.99
2017-09-15T02:42:52.842Z,97.89
2017-09-15T02:43:18.968Z,98.08
2017-09-15T02:43:45.091Z,98.37
2017-09-15T02:44:11.207Z,98.37
2017-09-15T02:44:37.334Z,98.47
2017-09-15T02:45:03.459Z,98.75
2017-09-15T02:45:29.576Z,98.37
2017-09-15T02:45:55.699Z,98.57
2017-09-15T02:46:21.830Z,98.52
2017-09-15T02:46:47.949Z,99.04
2017-09-15T02:47:14.068Z,98.37
2017-09-15T02:47:40.187Z,98.28
2017-09-15T02:48:06.317Z,98.37
2017-09-15T02:48:32.438Z,98.37
2017-09-15T02:48:58.556Z,98.18
2017-09-15T02:49:24.677Z,98.37
2017-09-15T02:49:50.842Z,97.99
2017-09-15T02:50:16.963Z,98.28
2017-09-15T02:50:43.088Z,98.37
2017-09-15T02:51:09.209Z,98.66
2017-09-15T02:51:35.330Z,98.8
2017-09-15T02:52:01.475Z,98.75
2017-09-15T02:52:27.607Z,99.04
2017-09-15T02:52:53.752Z,99.14
2017-09-15T02:53:19.875Z,98.75
2017-09-15T02:53:45.997Z,98.28
2017-09-15T02:54:12.113Z,98.37
2017-09-15T02:54:38.237Z,98.37
2017-09-15T02:55:04.355Z,98.28
2017-09-15T02:55:30.483Z,98.37
2017-09-15T02:55:56.599Z,99.23
2017-09-15T02:56:22.729Z,98.57
2017-09-15T02:56:48.850Z,99.04
2017-09-15T02:57:14.968Z,98.94
2017-09-15T02:57:41.092Z,98.94
2017-09-15T02:58:07.220Z,98.85
2017-09-15T02:58:33.335Z,99.14
2017-09-15T02:58:59.462Z,98.85
2017-09-15T02:59:25.581Z,98.8
2017-09-15T02:59:51.697Z,98.75
2017-09-15T03:00:17.821Z,98.94
2017-09-15T03:00:43.942Z,98.37
2017-09-15T03:01:10.070Z,98.8
2017-09-15T03:01:36.187Z,98.61
2017-09-15T03:02:02.313Z,98.61
2017-09-15T03:02:28.438Z,99.08
2017-09-15T03:02:54.555Z,98.37
2017-09-15T03:03:20.682Z,98.37
2017-09-15T03:03:46.805Z,98.57
2017-09-15T03:04:12.922Z,98.13
2017-09-15T03:04:39.043Z,98.37
2017-09-15T03:05:05.170Z,97.99
2017-09-15T03:05:31.287Z,97.8
2017-09-15T03:05:57.409Z,98.57
2017-09-15T03:06:23.535Z,97.89
2017-09-15T03:06:49.651Z,97.52
2017-09-15T03:07:15.779Z,98.13
2017-09-15T03:07:41.900Z,97.99
2017-09-15T03:08:08.017Z,97.99
2017-09-15T03:08:34.158Z,97.71
2017-09-15T03:09:00.277Z,97.94
2017-09-15T03:09:26.398Z,97.89
2017-09-15T03:09:52.525Z,98.18
2017-09-15T03:10:18.668Z,98.28
2017-09-15T03:10:44.789Z,97.99
2017-09-15T03:11:10.911Z,97.52
2017-09-15T03:11:37.037Z,98.18
2017-09-15T03:12:03.155Z,97.85
2017-09-15T03:12:29.282Z,98.13
2017-09-15T03:12:55.408Z,98.13
2017-09-15T03:13:21.525Z,98.32
2017-09-15T03:13:47.648Z,98.23
2017-09-15T03:14:13.772Z,98.61
2017-09-15T03:14:39.892Z,98.8
2017-09-15T03:15:06.019Z,98.9
2017-09-15T03:15:32.146Z,98.61
2017-09-15T03:15:58.267Z,98.8
2017-09-15T03:16:24.390Z,98.52
2017-09-15T03:16:50.511Z,98.9
2017-09-15T03:17:16.638Z,98.71
2017-09-15T03:17:42.759Z,99.08
2017-09-15T03:18:08.868Z,99.08
2017-09-15T03:18:34.993Z,99.08
2017-09-15T03:19:01.119Z,98.9
2017-09-15T03:19:27.260Z,98.71
2017-09-15T03:19:53.404Z,99.28
2017-09-15T03:20:19.532Z,98.71
2017-09-15T03:20:45.652Z,98.61
2017-09-15T03:21:11.779Z,98.9
2017-09-15T03:21:37.896Z,98.9
2017-09-15T03:22:04.022Z,98.52
2017-09-15T03:22:30.149Z,98.8
2017-09-15T03:22:56.267Z,98.42
2017-09-15T03:23:22.388Z,98.52
2017-09-15T03:23:48.515Z,98.61
2017-09-15T03:24:14.639Z,99.18
2017-09-15T03:24:40.761Z,98.42
2017-09-15T03:25:06.884Z,98.23
2017-09-15T03:25:33.003Z,98.32
2017-09-15T03:25:59.127Z,98.18
2017-09-15T03:26:25.246Z,97.75
2017-09-15T03:26:51.365Z,98.08
2017-09-15T03:27:17.492Z,98.13
2017-09-15T03:27:43.610Z,97.89
2017-09-15T03:28:09.734Z,98.37
2017-09-15T03:28:35.862Z,97.42
2017-09-15T03:29:01.980Z,97.75
2017-09-15T03:29:28.105Z,97.8
2017-09-15T03:29:54.227Z,97.85
2017-09-15T03:30:20.374Z,97.8
2017-09-15T03:30:46.492Z,97.52
2017-09-15T03:31:12.610Z,97.42
2017-09-15T03:31:38.734Z,97.71
2017-09-15T03:32:04.857Z,97.61
2017-09-15T03:32:30.977Z,96.94
2017-09-15T03:32:57.100Z,96.94
2017-09-15T03:33:23.230Z,96.66
2017-09-15T03:33:49.350Z,96.89
2017-09-15T03:34:15.470Z,96.84
2017-09-15T03:34:41.617Z,97.03
2017-09-15T03:35:07.733Z,96.84
2017-09-15T03:35:33.860Z,96.84
2017-09-15T03:35:59.984Z,96.75
2017-09-15T03:36:26.132Z,97.03
2017-09-15T03:36:52.256Z,96.27
2017-09-15T03:37:18.385Z,97.03
2017-09-15T03:37:44.523Z,96.27
2017-09-15T03:38:10.661Z,96.51
2017-09-15T03:38:36.783Z,96.37
2017-09-15T03:39:02.906Z,96.46
2017-09-15T03:39:29.028Z,96.75
2017-09-15T03:39:55.152Z,96.56
2017-09-15T03:40:21.271Z,96.7
2017-09-15T03:40:47.391Z,96.84
2017-09-15T03:41:13.517Z,96.56
2017-09-15T03:41:39.638Z,96.75
2017-09-15T03:42:05.761Z,96.56
2017-09-15T03:42:31.888Z,96.42
2017-09-15T03:42:58.008Z,96.75
2017-09-15T03:43:24.147Z,96.75
2017-09-15T03:43:50.271Z,96.56
2017-09-15T03:44:16.399Z,96.75
2017-09-15T03:44:42.516Z,96.66
2017-09-15T03:45:08.663Z,96.84
2017-09-15T03:45:34.783Z,96.84
2017-09-15T03:46:00.903Z,96.42
2017-09-15T03:46:27.029Z,96.32
2017-09-15T03:46:53.146Z,96.98
2017-09-15T03:47:19.274Z,96.89
2017-09-15T03:47:45.391Z,96.7
2017-09-15T03:48:11.516Z,96.89
2017-09-15T03:48:37.640Z,96.8
2017-09-15T03:49:03.757Z,96.8
2017-09-15T03:49:29.886Z,96.98
2017-09-15T03:49:56.008Z,96.98
2017-09-15T03:50:22.129Z,96.89
2017-09-15T03:50:48.253Z,96.8
2017-09-15T03:51:14.370Z,96.7
2017-09-15T03:51:40.496Z,96.89
2017-09-15T03:52:06.619Z,96.98
2017-09-15T03:52:32.737Z,96.42
2017-09-15T03:52:58.860Z,96.75
2017-09-15T03:53:24.979Z,96.75
2017-09-15T03:53:51.105Z,96.51
2017-09-15T03:54:17.223Z,96.7
2017-09-15T03:54:43.348Z,96.51
2017-09-15T03:55:09.493Z,96.75
2017-09-15T03:55:35.618Z,96.7
2017-09-15T03:56:01.745Z,97.18
2017-09-15T03:56:27.875Z,96.98
2017-09-15T03:56:53.995Z,97.08
2017-09-15T03:57:20.133Z,97.08
2017-09-15T03:57:46.258Z,97.08
2017-09-15T03:58:12.385Z,96.89
2017-09-15T03:58:38.502Z,97.56
2017-09-15T03:59:04.635Z,97.37
2017-09-15T03:59:30.750Z,97.37
2017-09-15T03:59:56.869Z,96.7
2017-09-15T04:00:23.002Z,96.8
2017-09-15T04:00:49.130Z,97.18
2017-09-15T04:01:15.247Z,97.18
2017-09-15T04:01:41.364Z,97.03
2017-09-15T04:02:07.488Z,96.94
2017-09-15T04:02:33.609Z,96.84
2017-09-15T04:02:59.747Z,96.56
2017-09-15T04:03:25.872Z,96.7
2017-09-15T04:03:51.991Z,96.51
2017-09-15T04:04:18.111Z,96.66
2017-09-15T04:04:44.237Z,96.56
2017-09-15T04:05:10.357Z,96.75
2017-09-15T04:05:36.483Z,96.66
2017-09-15T04:06:02.599Z,96.46
2017-09-15T04:06:28.728Z,96.75
2017-09-15T04:06:54.846Z,96.7
2017-09-15T04:07:20.972Z,96.42
2017-09-15T04:07:47.096Z,96.51
2017-09-15T04:08:13.212Z,96.32
2017-09-15T04:08:39.362Z,96.56
2017-09-15T04:09:05.479Z,96.61
2017-09-15T04:09:31.600Z,96.32
2017-09-15T04:09:57.724Z,96.75
2017-09-15T04:10:23.845Z,96.56
2017-09-15T04:10:49.973Z,96.7
2017-09-15T04:11:16.090Z,96.51
2017-09-15T04:11:42.214Z,96.51
2017-09-15T04:12:08.332Z,96.7
2017-09-15T04:12:34.462Z,96.8
2017-09-15T04:13:00.581Z,97.08
2017-09-15T04:13:26.711Z,96.98
2017-09-15T04:13:52.831Z,97.47
2017-09-15T04:14:18.948Z,97.37
2017-09-15T04:14:45.074Z,97.47
2017-09-15T04:15:11.195Z,97.37
2017-09-15T04:15:37.322Z,97.37
2017-09-15T04:16:03.441Z,96.89
2017-09-15T04:16:29.561Z,97.18
2017-09-15T04:16:55.688Z,96.98
2017-09-15T04:17:21.811Z,96.89
2017-09-15T04:17:47.929Z,96.98
2017-09-15T04:18:14.049Z,96.8
2017-09-15T04:18:40.171Z,97.56
2017-09-15T04:19:06.291Z,96.8
2017-09-15T04:19:32.418Z,97.75
2017-09-15T04:19:58.543Z,97.56
2017-09-15T04:20:24.663Z,97.37
2017-09-15T04:20:50.786Z,97.47
2017-09-15T04:21:16.904Z,97.47
2017-09-15T04:21:43.030Z,97.47
2017-09-15T04:22:09.146Z,97.47
2017-09-15T04:22:35.276Z,97.37
2017-09-15T04:23:01.392Z,97.47
2017-09-15T04:23:27.510Z,97.47
2017-09-15T04:23:53.638Z,97.32
2017-09-15T04:24:19.755Z,97.75
2017-09-15T04:24:45.880Z,97.47
2017-09-15T04:25:12.007Z,97.56
2017-09-15T04:25:38.129Z,97.56
2017-09-15T04:26:04.248Z,97.75
2017-09-15T04:26:30.379Z,97.71
2017-09-15T04:26:56.496Z,97.94
2017-09-15T04:27:22.626Z,97.8
2017-09-15T04:27:48.742Z,98.27
2017-09-15T04:28:14.866Z,97.94
2017-09-15T04:28:40.990Z,98.27
2017-09-15T04:29:07.110Z,98.32
2017-09-15T04:29:33.226Z,98.08
2017-09-15T04:29:59.354Z,98.32
2017-09-15T04:30:25.487Z,97.94
2017-09-15T04:30:51.610Z,98.08
2017-09-15T04:31:17.736Z,97.8
2017-09-15T04:31:43.854Z,97.94
2017-09-15T04:32:09.979Z,97.89
2017-09-15T04:32:36.097Z,97.85
2017-09-15T04:33:02.223Z,97.42
2017-09-15T04:33:28.364Z,97.42
2017-09-15T04:33:54.485Z,97.94
2017-09-15T04:34:20.606Z,97.51
2017-09-15T04:34:46.723Z,97.71
2017-09-15T04:35:12.847Z,97.56
2017-09-15T04:35:38.969Z,97.18
2017-09-15T04:36:05.095Z,97.32
2017-09-15T04:36:31.219Z,97.8
2017-09-15T04:36:57.338Z,97.61
2017-09-15T04:37:23.458Z,97.61
2017-09-15T04:37:49.583Z,97.99
2017-09-15T04:38:15.703Z,97.61
2017-09-15T04:38:41.848Z,98.08
2017-09-15T04:39:07.976Z,98.08
2017-09-15T04:39:34.092Z,98.27
2017-09-15T04:40:00.220Z,97.61
2017-09-15T04:40:26.336Z,98.08
2017-09-15T04:40:52.458Z,97.8
2017-09-15T04:41:18.582Z,98.08
2017-09-15T04:41:44.700Z,97.51
2017-09-15T04:42:10.826Z,97.85
2017-09-15T04:42:36.942Z,97.51
2017-09-15T04:43:03.072Z,97.51
2017-09-15T04:43:29.196Z,98.47
2017-09-15T04:43:55.317Z,97.71
2017-09-15T04:44:21.435Z,97.56
2017-09-15T04:44:47.559Z,98.27
2017-09-15T04:45:13.685Z,98.37
2017-09-15T04:45:39.804Z,97.89
2017-09-15T04:46:05.925Z,97.61
2017-09-15T04:46:32.050Z,97.71
2017-09-15T04:46:58.175Z,97.85
2017-09-15T04:47:24.293Z,97.61
2017-09-15T04:47:50.420Z,97.99
2017-09-15T04:48:16.541Z,97.51
2017-09-15T04:48:42.655Z,97.47
2017-09-15T04:49:08.780Z,97.71
2017-09-15T04:49:34.903Z,97.8
2017-09-15T04:50:01.026Z,98.27
2017-09-15T04:50:27.152Z,98.27
2017-09-15T04:50:53.271Z,97.71
2017-09-15T04:51:19.396Z,97.89
2017-09-15T04:51:45.515Z,98.27
2017-09-15T04:52:11.636Z,97.51
2017-09-15T04:52:37.768Z,97.51
2017-09-15T04:53:03.907Z,98.37
2017-09-15T04:53:30.028Z,98.08
2017-09-15T04:53:56.157Z,97.85
2017-09-15T04:54:22.292Z,97.89
2017-09-15T04:54:48.419Z,97.99
2017-09-15T04:55:14.532Z,97.71
2017-09-15T04:55:40.655Z,97.99
2017-09-15T04:56:06.776Z,97.61
2017-09-15T04:56:32.902Z,97.71
2017-09-15T04:56:59.030Z,97.8
2017-09-15T04:57:25.148Z,97.51
2017-09-15T04:57:51.273Z,97.51
2017-09-15T04:58:17.394Z,97.47
2017-09-15T04:58:43.515Z,97.42
2017-09-15T04:59:09.645Z,97.61
2017-09-15T04:59:35.783Z,97.03
2017-09-15T05:00:01.929Z,96.94
2017-09-15T05:00:28.053Z,96.89
2017-09-15T05:00:54.179Z,96.22
2017-09-15T05:01:20.299Z,96.61
2017-09-15T05:01:46.426Z,96.75
2017-09-15T05:02:12.546Z,96.75
2017-09-15T05:02:38.671Z,96.94
2017-09-15T05:03:04.788Z,97.08
2017-09-15T05:03:30.907Z,96.98
2017-09-15T05:03:57.035Z,96.8
2017-09-15T05:04:23.160Z,96.37
2017-09-15T05:04:49.276Z,96.66
2017-09-15T05:05:15.403Z,96.46
2017-09-15T05:05:41.519Z,96.42
2017-09-15T05:06:07.643Z,96.94
2017-09-15T05:06:33.791Z,96.94
2017-09-15T05:06:59.911Z,97.13
2017-09-15T05:07:26.038Z,96.84
2017-09-15T05:07:52.165Z,96.56
2017-09-15T05:08:18.282Z,97.71
2017-09-15T05:08:44.430Z,97.37
2017-09-15T05:09:10.553Z,96.61
2017-09-15T05:09:36.671Z,96.46
2017-09-15T05:10:02.801Z,96.46
2017-09-15T05:10:28.927Z,96.7
2017-09-15T05:10:55.045Z,96.56
2017-09-15T05:11:21.174Z,96.66
2017-09-15T05:11:47.289Z,96.46
2017-09-15T05:12:13.415Z,96.84
2017-09-15T05:12:39.540Z,96.22
2017-09-15T05:13:05.657Z,96.37
2017-09-15T05:13:31.782Z,96.42
2017-09-15T05:13:57.898Z,96.03
2017-09-15T05:14:24.020Z,96.17
2017-09-15T05:14:50.135Z,96.08
2017-09-15T05:15:16.263Z,96.08
2017-09-15T05:15:42.384Z,96.94
2017-09-15T05:16:08.509Z,96.66
2017-09-15T05:16:34.633Z,96.56
2017-09-15T05:17:00.749Z,96.56
2017-09-15T05:17:26.874Z,96.46
2017-09-15T05:17:52.992Z,96.56
2017-09-15T05:18:19.108Z,96.75
2017-09-15T05:18:45.234Z,96.37
2017-09-15T05:19:11.356Z,96.75
2017-09-15T05:19:37.479Z,96.17
2017-09-15T05:20:03.605Z,96.03
2017-09-15T05:20:29.726Z,96.13
2017-09-15T05:20:55.861Z,96.51
2017-09-15T05:21:21.972Z,96.32
2017-09-15T05:21:48.096Z,95.75
2017-09-15T05:22:14.236Z,95.56
2017-09-15T05:22:40.364Z,95.94
2017-09-15T05:23:06.483Z,95.84
2017-09-15T05:23:32.600Z,95.75
2017-09-15T05:23:58.724Z,95.75
2017-09-15T05:24:24.851Z,95.84
2017-09-15T05:24:50.967Z,95.7
2017-09-15T05:25:17.090Z,95.75
2017-09-15T05:25:43.215Z,96.17
2017-09-15T05:26:09.332Z,96.27
2017-09-15T05:26:35.458Z,95.98
2017-09-15T05:27:01.593Z,96.08
2017-09-15T05:27:27.709Z,96.08
2017-09-15T05:27:53.832Z,96.22
2017-09-15T05:28:19.953Z,96.13
2017-09-15T05:28:46.076Z,96.27
2017-09-15T05:29:12.200Z,96.42
2017-09-15T05:29:38.317Z,96.37
2017-09-15T05:30:04.441Z,96.32
2017-09-15T05:30:30.569Z,96.27
2017-09-15T05:30:56.688Z,96.08
2017-09-15T05:31:22.809Z,96.17
2017-09-15T05:31:48.936Z,96.08
2017-09-15T05:32:15.077Z,96.37
2017-09-15T05:32:41.189Z,96.03
2017-09-15T05:33:07.315Z,96.27
2017-09-15T05:33:33.438Z,96.46
2017-09-15T05:33:59.565Z,96.56
2017-09-15T05:34:25.707Z,96.66
2017-09-15T05:34:51.830Z,96.84
2017-09-15T05:35:17.955Z,96.66
2017-09-15T05:35:44.075Z,96.84
2017-09-15T05:36:10.193Z,96.37
2017-09-15T05:36:36.321Z,96.22
2017-09-15T05:37:02.437Z,95.98